EWG66L EDDS-LPPT
Flight info
| Callsign | EWG66L |
|---|---|
| Flight time | N/A |
| Altitude | 35000 |
| Route | ROTWE5B ROTWE Y126 TUBLO N850 NATOR DCT LUTIX N869 BENOT DCT NEMOS DCT NINTU DCT MEBAK DCT REPSI DCT LERGA DCT MINSO DCT NARAK DCT AGN DCT LATEK N995 PPN N976 NEA DCT ARDID DCT INBOM |
| Aircraft | A319/M-SDE3FGHIRWY/LB1 |
Departure
| Time | N/A |
|---|---|
| Airport | Stuttgart Airport (EDDS) |
Arrival
| Time | 2026-05-06 18:04 |
|---|---|
| Airport | Lisbon Humberto Delgado Airport (LPPT) |
| Time | Latitude | Longitude | Altitude | Speed | Heading |
|---|---|---|---|---|---|
| 2026-05-06 16:31 | 43.75325 | 0.66449 | 34947 ft | 436 kts | 230° |
| 2026-05-06 16:31 | 43.71269 | 0.60204 | 34957 ft | 436 kts | 230° |
| 2026-05-06 16:32 | 43.67209 | 0.53974 | 34954 ft | 436 kts | 230° |
| 2026-05-06 16:32 | 43.63151 | 0.47760 | 34955 ft | 436 kts | 230° |
| 2026-05-06 16:33 | 43.59093 | 0.41557 | 34964 ft | 435 kts | 230° |
| 2026-05-06 16:34 | 43.53037 | 0.32331 | 34964 ft | 434 kts | 230° |
| 2026-05-06 16:34 | 43.48976 | 0.26158 | 34969 ft | 435 kts | 230° |
| 2026-05-06 16:35 | 43.44960 | 0.20065 | 34970 ft | 435 kts | 230° |
| 2026-05-06 16:35 | 43.40889 | 0.13905 | 34976 ft | 435 kts | 230° |
| 2026-05-06 16:36 | 43.36816 | 0.07762 | 34985 ft | 434 kts | 230° |
| 2026-05-06 16:36 | 43.32751 | 0.01637 | 34989 ft | 433 kts | 230° |
| 2026-05-06 16:37 | 43.28687 | -0.04482 | 34979 ft | 434 kts | 230° |
| 2026-05-06 16:37 | 43.24616 | -0.10595 | 34980 ft | 434 kts | 230° |
| 2026-05-06 16:38 | 43.20533 | -0.16698 | 34973 ft | 434 kts | 230° |
| 2026-05-06 16:38 | 43.16452 | -0.22796 | 34983 ft | 434 kts | 230° |
| 2026-05-06 16:39 | 43.12396 | -0.28843 | 34988 ft | 433 kts | 230° |
| 2026-05-06 16:39 | 43.08319 | -0.34918 | 34987 ft | 433 kts | 230° |
| 2026-05-06 16:40 | 43.04239 | -0.40986 | 34990 ft | 433 kts | 230° |
| 2026-05-06 16:40 | 43.00158 | -0.47023 | 34964 ft | 432 kts | 230° |
| 2026-05-06 16:41 | 42.96078 | -0.53050 | 34996 ft | 431 kts | 230° |
| 2026-05-06 16:41 | 42.92009 | -0.59050 | 34999 ft | 429 kts | 230° |
| 2026-05-06 16:42 | 42.88416 | -0.65452 | 34997 ft | 424 kts | 244° |
| 2026-05-06 16:42 | 42.86551 | -0.72997 | 34990 ft | 420 kts | 261° |
| 2026-05-06 16:43 | 42.85532 | -0.80837 | 34976 ft | 421 kts | 260° |
| 2026-05-06 16:43 | 42.84484 | -0.88682 | 34971 ft | 421 kts | 260° |
| 2026-05-06 16:44 | 42.83433 | -0.96531 | 34972 ft | 421 kts | 260° |
| 2026-05-06 16:44 | 42.82381 | -1.04393 | 34973 ft | 422 kts | 260° |
| 2026-05-06 16:45 | 42.81333 | -1.12259 | 34977 ft | 422 kts | 260° |
| 2026-05-06 16:45 | 42.80284 | -1.20070 | 34974 ft | 422 kts | 260° |
| 2026-05-06 16:46 | 42.79208 | -1.27931 | 34978 ft | 423 kts | 260° |
| 2026-05-06 16:46 | 42.78133 | -1.35806 | 34980 ft | 423 kts | 260° |
| 2026-05-06 16:47 | 42.77054 | -1.43684 | 34984 ft | 423 kts | 260° |
| 2026-05-06 16:47 | 42.75969 | -1.51565 | 34985 ft | 424 kts | 260° |
| 2026-05-06 16:48 | 42.74878 | -1.59445 | 34979 ft | 424 kts | 260° |
| 2026-05-06 16:48 | 42.73782 | -1.67340 | 34981 ft | 425 kts | 260° |
| 2026-05-06 16:49 | 42.72283 | -1.75116 | 34984 ft | 426 kts | 254° |
| 2026-05-06 16:49 | 42.70550 | -1.82802 | 34985 ft | 426 kts | 254° |
| 2026-05-06 16:50 | 42.68808 | -1.90504 | 34989 ft | 426 kts | 254° |
| 2026-05-06 16:50 | 42.67072 | -1.98154 | 34978 ft | 426 kts | 254° |
| 2026-05-06 16:51 | 42.65321 | -2.05856 | 34979 ft | 427 kts | 254° |
| 2026-05-06 16:51 | 42.63558 | -2.13561 | 34975 ft | 427 kts | 254° |
| 2026-05-06 16:52 | 42.61765 | -2.21258 | 34972 ft | 427 kts | 253° |
| 2026-05-06 16:52 | 42.59899 | -2.28914 | 34969 ft | 427 kts | 252° |
| 2026-05-06 16:53 | 42.58015 | -2.36570 | 34957 ft | 427 kts | 252° |
| 2026-05-06 16:53 | 42.56139 | -2.44217 | 34963 ft | 428 kts | 252° |
| 2026-05-06 16:54 | 42.54282 | -2.51826 | 34971 ft | 428 kts | 252° |
| 2026-05-06 16:54 | 42.52408 | -2.59477 | 34980 ft | 428 kts | 252° |
| 2026-05-06 16:55 | 42.50522 | -2.67121 | 34988 ft | 428 kts | 252° |
| 2026-05-06 16:55 | 42.48632 | -2.74777 | 34994 ft | 428 kts | 252° |
| 2026-05-06 16:56 | 42.47044 | -2.81188 | 35001 ft | 429 kts | 252° |
| 2026-05-06 16:56 | 42.45092 | -2.88762 | 34999 ft | 429 kts | 248° |
| 2026-05-06 16:57 | 42.42600 | -2.96119 | 35004 ft | 430 kts | 246° |
| 2026-05-06 16:57 | 42.40101 | -3.03471 | 35002 ft | 430 kts | 246° |
| 2026-05-06 16:58 | 42.37593 | -3.10811 | 34992 ft | 430 kts | 246° |
| 2026-05-06 16:58 | 42.35075 | -3.18153 | 34978 ft | 430 kts | 246° |
| 2026-05-06 16:59 | 42.32560 | -3.25497 | 34978 ft | 430 kts | 246° |
| 2026-05-06 16:59 | 42.30041 | -3.32831 | 34980 ft | 430 kts | 246° |
| 2026-05-06 17:00 | 42.27510 | -3.40159 | 34978 ft | 430 kts | 246° |
| 2026-05-06 17:00 | 42.24974 | -3.47479 | 34971 ft | 430 kts | 246° |
| 2026-05-06 17:01 | 42.22449 | -3.54787 | 34975 ft | 430 kts | 246° |
| 2026-05-06 17:01 | 42.19930 | -3.62064 | 34971 ft | 430 kts | 246° |
| 2026-05-06 17:02 | 42.17365 | -3.69412 | 34964 ft | 431 kts | 246° |
| 2026-05-06 17:02 | 42.14832 | -3.76659 | 34962 ft | 431 kts | 246° |
| 2026-05-06 17:03 | 42.12271 | -3.83959 | 34950 ft | 431 kts | 246° |
| 2026-05-06 17:03 | 42.09701 | -3.91261 | 34949 ft | 431 kts | 246° |
| 2026-05-06 17:04 | 42.07129 | -3.98559 | 34955 ft | 432 kts | 246° |
| 2026-05-06 17:04 | 42.04553 | -4.05851 | 34959 ft | 432 kts | 246° |
| 2026-05-06 17:05 | 42.01955 | -4.13144 | 34963 ft | 432 kts | 245° |
| 2026-05-06 17:05 | 41.99247 | -4.20359 | 34970 ft | 432 kts | 244° |
| 2026-05-06 17:06 | 41.96474 | -4.27522 | 34968 ft | 432 kts | 244° |
| 2026-05-06 17:06 | 41.93728 | -4.34647 | 34968 ft | 432 kts | 244° |
| 2026-05-06 17:07 | 41.90982 | -4.41823 | 34964 ft | 432 kts | 244° |
| 2026-05-06 17:07 | 41.88248 | -4.48999 | 34955 ft | 431 kts | 244° |
| 2026-05-06 17:08 | 41.85507 | -4.56162 | 34959 ft | 431 kts | 244° |
| 2026-05-06 17:08 | 41.82751 | -4.63305 | 34958 ft | 431 kts | 244° |
| 2026-05-06 17:09 | 41.79989 | -4.70440 | 34972 ft | 431 kts | 244° |
| 2026-05-06 17:09 | 41.77234 | -4.77575 | 34975 ft | 431 kts | 244° |
| 2026-05-06 17:10 | 41.74472 | -4.84698 | 34970 ft | 431 kts | 244° |
| 2026-05-06 17:10 | 41.71697 | -4.91818 | 34968 ft | 431 kts | 243° |
| 2026-05-06 17:11 | 41.68920 | -4.98934 | 34976 ft | 431 kts | 243° |
| 2026-05-06 17:11 | 41.66150 | -5.06038 | 34956 ft | 431 kts | 243° |
| 2026-05-06 17:12 | 41.63390 | -5.13090 | 34953 ft | 431 kts | 243° |
| 2026-05-06 17:12 | 41.60606 | -5.20183 | 34944 ft | 430 kts | 243° |
| 2026-05-06 17:13 | 41.57823 | -5.27258 | 34935 ft | 430 kts | 243° |
| 2026-05-06 17:13 | 41.55024 | -5.34331 | 34937 ft | 431 kts | 243° |
| 2026-05-06 17:14 | 41.52223 | -5.41412 | 34934 ft | 431 kts | 243° |
| 2026-05-06 17:14 | 41.49424 | -5.48477 | 34935 ft | 431 kts | 243° |
| 2026-05-06 17:15 | 41.46612 | -5.55542 | 34929 ft | 431 kts | 243° |
| 2026-05-06 17:15 | 41.43801 | -5.62594 | 34934 ft | 431 kts | 243° |
| 2026-05-06 17:16 | 41.40990 | -5.69649 | 34922 ft | 431 kts | 243° |
| 2026-05-06 17:16 | 41.38178 | -5.76691 | 34926 ft | 431 kts | 243° |
| 2026-05-06 17:17 | 41.35355 | -5.83722 | 34922 ft | 430 kts | 242° |
| 2026-05-06 17:17 | 41.32523 | -5.90745 | 34923 ft | 430 kts | 242° |
| 2026-05-06 17:18 | 41.29694 | -5.97754 | 34915 ft | 430 kts | 242° |
| 2026-05-06 17:18 | 41.26859 | -6.04764 | 34911 ft | 430 kts | 242° |
| 2026-05-06 17:19 | 41.24045 | -6.11723 | 34913 ft | 430 kts | 242° |
| 2026-05-06 17:19 | 41.21209 | -6.18721 | 34910 ft | 430 kts | 242° |
| 2026-05-06 17:20 | 41.18364 | -6.25704 | 34902 ft | 430 kts | 242° |
| 2026-05-06 17:20 | 41.15048 | -6.32306 | 34890 ft | 431 kts | 234° |
| 2026-05-06 17:21 | 41.11463 | -6.38673 | 34894 ft | 431 kts | 234° |
| 2026-05-06 17:21 | 41.07872 | -6.45040 | 34896 ft | 431 kts | 234° |
| 2026-05-06 17:22 | 41.04289 | -6.51395 | 34903 ft | 431 kts | 234° |
| 2026-05-06 17:22 | 41.00688 | -6.57748 | 34896 ft | 431 kts | 234° |
| 2026-05-06 17:23 | 40.97088 | -6.64086 | 34896 ft | 431 kts | 234° |
| 2026-05-06 17:23 | 40.93483 | -6.70431 | 34875 ft | 431 kts | 234° |
| 2026-05-06 17:24 | 40.89911 | -6.76706 | 34876 ft | 430 kts | 234° |
| 2026-05-06 17:24 | 40.86309 | -6.83021 | 34881 ft | 430 kts | 234° |
| 2026-05-06 17:25 | 40.82702 | -6.89323 | 34894 ft | 430 kts | 234° |
| 2026-05-06 17:25 | 40.79094 | -6.95613 | 34896 ft | 429 kts | 234° |
| 2026-05-06 17:26 | 40.75491 | -7.01895 | 34894 ft | 429 kts | 234° |
| 2026-05-06 17:26 | 40.71885 | -7.08167 | 34893 ft | 429 kts | 234° |
| 2026-05-06 17:27 | 40.68272 | -7.14435 | 34882 ft | 429 kts | 234° |
| 2026-05-06 17:27 | 40.64654 | -7.20691 | 34889 ft | 429 kts | 234° |
| 2026-05-06 17:28 | 40.61037 | -7.26941 | 34907 ft | 429 kts | 234° |
| 2026-05-06 17:28 | 40.57418 | -7.33173 | 34913 ft | 428 kts | 234° |
| 2026-05-06 17:29 | 40.53800 | -7.39397 | 34913 ft | 428 kts | 234° |
| 2026-05-06 17:29 | 40.50184 | -7.45606 | 34916 ft | 428 kts | 234° |
| 2026-05-06 17:30 | 40.46567 | -7.51807 | 34909 ft | 427 kts | 234° |
| 2026-05-06 17:30 | 40.42952 | -7.57991 | 34906 ft | 427 kts | 233° |
| 2026-05-06 17:31 | 40.39336 | -7.64160 | 34922 ft | 427 kts | 233° |
| 2026-05-06 17:31 | 40.35733 | -7.70294 | 34920 ft | 426 kts | 233° |
| 2026-05-06 17:32 | 40.32110 | -7.76439 | 34921 ft | 426 kts | 233° |
| 2026-05-06 17:32 | 40.28484 | -7.82592 | 34918 ft | 426 kts | 233° |
| 2026-05-06 17:33 | 40.24864 | -7.88734 | 34915 ft | 426 kts | 233° |
| 2026-05-06 17:33 | 40.21232 | -7.94874 | 34924 ft | 426 kts | 233° |
| 2026-05-06 17:34 | 40.17602 | -8.00996 | 34711 ft | 423 kts | 233° |
| 2026-05-06 17:34 | 40.15800 | -8.04031 | 34037 ft | 422 kts | 233° |
| 2026-05-06 17:34 | 40.13996 | -8.07066 | 33249 ft | 422 kts | 233° |
| 2026-05-06 17:34 | 40.12196 | -8.10091 | 32372 ft | 423 kts | 233° |
| 2026-05-06 17:35 | 40.10384 | -8.13133 | 31416 ft | 426 kts | 232° |
| 2026-05-06 17:35 | 40.08558 | -8.16198 | 30419 ft | 429 kts | 232° |
| 2026-05-06 17:35 | 40.06710 | -8.19294 | 29285 ft | 434 kts | 232° |
| 2026-05-06 17:36 | 40.02951 | -8.25450 | 27838 ft | 422 kts | 226° |
| 2026-05-06 17:36 | 40.00783 | -8.27909 | 27698 ft | 406 kts | 215° |
| 2026-05-06 17:36 | 39.98362 | -8.29703 | 27362 ft | 397 kts | 205° |
| 2026-05-06 17:36 | 39.95756 | -8.30818 | 26837 ft | 393 kts | 193° |
| 2026-05-06 17:37 | 39.93087 | -8.31307 | 26256 ft | 391 kts | 188° |
| 2026-05-06 17:37 | 39.90388 | -8.31703 | 25679 ft | 389 kts | 188° |
| 2026-05-06 17:37 | 39.87710 | -8.32109 | 25130 ft | 386 kts | 188° |
| 2026-05-06 17:37 | 39.85048 | -8.32521 | 24602 ft | 384 kts | 188° |
| 2026-05-06 17:38 | 39.82401 | -8.32934 | 24101 ft | 382 kts | 188° |
| 2026-05-06 17:38 | 39.79771 | -8.33343 | 23620 ft | 380 kts | 188° |
| 2026-05-06 17:38 | 39.77149 | -8.33748 | 23100 ft | 378 kts | 188° |
| 2026-05-06 17:38 | 39.74566 | -8.34141 | 22849 ft | 368 kts | 188° |
| 2026-05-06 17:39 | 39.72075 | -8.34594 | 22720 ft | 355 kts | 195° |
| 2026-05-06 17:39 | 39.69794 | -8.35615 | 22581 ft | 340 kts | 207° |
| 2026-05-06 17:39 | 39.67817 | -8.37199 | 22331 ft | 330 kts | 219° |
| 2026-05-06 17:39 | 39.66179 | -8.39243 | 21958 ft | 325 kts | 230° |
| 2026-05-06 17:40 | 39.64811 | -8.41554 | 21578 ft | 321 kts | 232° |
| 2026-05-06 17:40 | 39.63456 | -8.43862 | 21132 ft | 320 kts | 232° |
| 2026-05-06 17:40 | 39.62105 | -8.46151 | 20663 ft | 320 kts | 232° |
| 2026-05-06 17:40 | 39.60756 | -8.48438 | 20279 ft | 317 kts | 232° |
| 2026-05-06 17:41 | 39.59420 | -8.50688 | 19936 ft | 314 kts | 231° |
| 2026-05-06 17:41 | 39.57892 | -8.52702 | 19533 ft | 313 kts | 219° |
| 2026-05-06 17:41 | 39.56099 | -8.54287 | 19127 ft | 313 kts | 211° |
| 2026-05-06 17:41 | 39.54237 | -8.55731 | 18763 ft | 311 kts | 212° |
| 2026-05-06 17:42 | 39.52388 | -8.57172 | 18449 ft | 307 kts | 212° |
| 2026-05-06 17:42 | 39.50588 | -8.58585 | 18049 ft | 307 kts | 212° |
| 2026-05-06 17:42 | 39.48768 | -8.60017 | 17619 ft | 306 kts | 212° |
| 2026-05-06 17:42 | 39.46954 | -8.61443 | 17230 ft | 304 kts | 212° |
| 2026-05-06 17:43 | 39.45150 | -8.62863 | 16856 ft | 302 kts | 212° |
| 2026-05-06 17:43 | 39.43366 | -8.64265 | 16511 ft | 299 kts | 212° |
| 2026-05-06 17:43 | 39.41583 | -8.65665 | 16138 ft | 299 kts | 212° |
| 2026-05-06 17:43 | 39.39799 | -8.67062 | 15723 ft | 300 kts | 212° |
| 2026-05-06 17:44 | 39.38023 | -8.68449 | 15408 ft | 298 kts | 212° |
| 2026-05-06 17:44 | 39.36257 | -8.69826 | 15100 ft | 295 kts | 212° |
| 2026-05-06 17:44 | 39.34505 | -8.71194 | 14745 ft | 295 kts | 212° |
| 2026-05-06 17:44 | 39.32751 | -8.72562 | 14373 ft | 295 kts | 212° |
| 2026-05-06 17:45 | 39.31598 | -8.73500 | 14128 ft | 295 kts | 217° |
| 2026-05-06 17:45 | 39.30038 | -8.75192 | 13817 ft | 292 kts | 223° |
| 2026-05-06 17:45 | 39.28529 | -8.76933 | 13514 ft | 289 kts | 223° |
| 2026-05-06 17:45 | 39.27026 | -8.78666 | 13114 ft | 290 kts | 223° |
| 2026-05-06 17:46 | 39.25522 | -8.80395 | 12713 ft | 290 kts | 222° |
| 2026-05-06 17:46 | 39.24017 | -8.82123 | 12356 ft | 289 kts | 222° |
| 2026-05-06 17:46 | 39.22520 | -8.83842 | 12020 ft | 287 kts | 222° |
| 2026-05-06 17:46 | 39.21039 | -8.85541 | 11671 ft | 285 kts | 222° |
| 2026-05-06 17:47 | 39.19557 | -8.87237 | 11287 ft | 285 kts | 222° |
| 2026-05-06 17:47 | 39.18069 | -8.88939 | 10883 ft | 286 kts | 221° |
| 2026-05-06 17:47 | 39.16589 | -8.90634 | 10574 ft | 284 kts | 221° |
| 2026-05-06 17:47 | 39.15113 | -8.92325 | 10329 ft | 284 kts | 221° |
| 2026-05-06 17:48 | 39.13633 | -8.94018 | 10085 ft | 284 kts | 221° |
| 2026-05-06 17:48 | 39.12155 | -8.95705 | 9848 ft | 284 kts | 221° |
| 2026-05-06 17:48 | 39.10671 | -8.97397 | 9585 ft | 284 kts | 221° |
| 2026-05-06 17:48 | 39.09196 | -8.99081 | 9318 ft | 283 kts | 221° |
| 2026-05-06 17:49 | 39.07729 | -9.00756 | 9054 ft | 282 kts | 221° |
| 2026-05-06 17:49 | 39.06263 | -9.02427 | 8795 ft | 281 kts | 221° |
| 2026-05-06 17:49 | 39.04796 | -9.04099 | 8532 ft | 281 kts | 221° |
| 2026-05-06 17:49 | 39.03336 | -9.05762 | 8270 ft | 280 kts | 221° |
| 2026-05-06 17:50 | 39.01896 | -9.07399 | 8037 ft | 279 kts | 221° |
| 2026-05-06 17:50 | 39.00443 | -9.09052 | 7934 ft | 279 kts | 221° |
| 2026-05-06 17:50 | 38.98986 | -9.10705 | 7944 ft | 280 kts | 221° |
| 2026-05-06 17:50 | 38.97358 | -9.12059 | 7859 ft | 279 kts | 207° |
| 2026-05-06 17:51 | 38.95621 | -9.13152 | 7462 ft | 278 kts | 206° |
| 2026-05-06 17:51 | 38.93880 | -9.14225 | 7089 ft | 277 kts | 206° |
| 2026-05-06 17:51 | 38.92150 | -9.15288 | 6728 ft | 276 kts | 206° |
| 2026-05-06 17:51 | 38.90418 | -9.16349 | 6354 ft | 275 kts | 206° |
| 2026-05-06 17:52 | 38.88696 | -9.17403 | 5972 ft | 274 kts | 206° |
| 2026-05-06 17:52 | 38.86976 | -9.18454 | 5590 ft | 273 kts | 206° |
| 2026-05-06 17:52 | 38.85259 | -9.19505 | 5204 ft | 273 kts | 207° |
| 2026-05-06 17:52 | 38.83541 | -9.20561 | 4829 ft | 274 kts | 207° |
| 2026-05-06 17:53 | 38.81828 | -9.21616 | 4542 ft | 273 kts | 207° |
| 2026-05-06 17:53 | 38.80113 | -9.22669 | 4284 ft | 274 kts | 207° |
| 2026-05-06 17:53 | 38.78399 | -9.23721 | 4066 ft | 274 kts | 208° |
| 2026-05-06 17:53 | 38.76674 | -9.24777 | 3998 ft | 275 kts | 209° |
| 2026-05-06 17:54 | 38.74937 | -9.25838 | 4039 ft | 278 kts | 208° |
| 2026-05-06 17:54 | 38.73207 | -9.26894 | 4033 ft | 274 kts | 208° |
| 2026-05-06 17:54 | 38.71487 | -9.27943 | 4034 ft | 273 kts | 207° |
| 2026-05-06 17:54 | 38.69772 | -9.28990 | 4033 ft | 272 kts | 208° |
| 2026-05-06 17:55 | 38.68112 | -9.30002 | 4031 ft | 255 kts | 208° |
| 2026-05-06 17:55 | 38.66570 | -9.30939 | 4023 ft | 245 kts | 209° |
| 2026-05-06 17:55 | 38.65042 | -9.31869 | 4024 ft | 240 kts | 208° |
| 2026-05-06 17:55 | 38.63542 | -9.32783 | 4023 ft | 238 kts | 208° |
| 2026-05-06 17:56 | 38.62050 | -9.33694 | 4024 ft | 237 kts | 208° |
| 2026-05-06 17:56 | 38.60550 | -9.34608 | 4025 ft | 237 kts | 209° |
| 2026-05-06 17:56 | 38.59057 | -9.35518 | 4024 ft | 237 kts | 208° |
| 2026-05-06 17:56 | 38.57542 | -9.36365 | 4021 ft | 241 kts | 199° |
| 2026-05-06 17:57 | 38.55855 | -9.36376 | 4026 ft | 246 kts | 165° |
| 2026-05-06 17:57 | 38.54436 | -9.35322 | 4025 ft | 247 kts | 132° |
| 2026-05-06 17:57 | 38.53557 | -9.33505 | 4021 ft | 243 kts | 107° |
| 2026-05-06 17:57 | 38.53221 | -9.31414 | 4027 ft | 239 kts | 88° |
| 2026-05-06 17:58 | 38.53427 | -9.29356 | 4026 ft | 231 kts | 69° |
| 2026-05-06 17:58 | 38.54112 | -9.27526 | 4024 ft | 225 kts | 50° |
| 2026-05-06 17:58 | 38.55128 | -9.26130 | 4023 ft | 208 kts | 33° |
| 2026-05-06 17:58 | 38.56349 | -9.25202 | 4022 ft | 201 kts | 19° |
| 2026-05-06 17:59 | 38.57631 | -9.24524 | 4022 ft | 196 kts | 18° |
| 2026-05-06 17:59 | 38.58872 | -9.23863 | 3996 ft | 190 kts | 18° |
| 2026-05-06 17:59 | 38.60074 | -9.23223 | 3854 ft | 184 kts | 18° |
| 2026-05-06 17:59 | 38.61241 | -9.22602 | 3605 ft | 180 kts | 18° |
| 2026-05-06 18:00 | 38.62383 | -9.21994 | 3393 ft | 176 kts | 17° |
| 2026-05-06 18:00 | 38.63512 | -9.21394 | 3152 ft | 175 kts | 17° |
| 2026-05-06 18:00 | 38.64616 | -9.20806 | 2917 ft | 169 kts | 18° |
| 2026-05-06 18:00 | 38.65679 | -9.20239 | 2697 ft | 162 kts | 18° |
| 2026-05-06 18:01 | 38.66689 | -9.19700 | 2490 ft | 152 kts | 18° |
| 2026-05-06 18:01 | 38.67636 | -9.19195 | 2278 ft | 143 kts | 17° |
| 2026-05-06 18:01 | 38.68540 | -9.18714 | 2081 ft | 138 kts | 17° |
| 2026-05-06 18:01 | 38.69408 | -9.18251 | 1895 ft | 134 kts | 16° |
| 2026-05-06 18:02 | 38.70262 | -9.17796 | 1726 ft | 132 kts | 16° |
| 2026-05-06 18:02 | 38.71104 | -9.17350 | 1537 ft | 132 kts | 16° |
| 2026-05-06 18:02 | 38.71946 | -9.16899 | 1358 ft | 130 kts | 16° |
| 2026-05-06 18:02 | 38.72781 | -9.16455 | 1183 ft | 130 kts | 16° |
| 2026-05-06 18:03 | 38.73619 | -9.16009 | 988 ft | 133 kts | 17° |
| 2026-05-06 18:03 | 38.74466 | -9.15555 | 796 ft | 130 kts | 15° |
| 2026-05-06 18:03 | 38.75296 | -9.15113 | 653 ft | 133 kts | 16° |
| 2026-05-06 18:03 | 38.76164 | -9.14646 | 486 ft | 136 kts | 14° |
| 2026-05-06 18:04 | 38.77031 | -9.14186 | 360 ft | 128 kts | 20° |
| 2026-05-06 18:04 | 38.77739 | -9.13803 | 359 ft | 87 kts | 22° |
| 2026-05-06 18:04 | 38.78176 | -9.13569 | 356 ft | 50 kts | 23° |
| 2026-05-06 18:04 | 38.78343 | -9.13390 | 358 ft | 16 kts | 48° |
| 2026-05-06 18:05 | 38.78375 | -9.13297 | 354 ft | 5 kts | 105° |
| 2026-05-06 18:05 | 38.78375 | -9.13295 | 355 ft | 0 kts | 108° |
| 2026-05-06 18:05 | 38.78371 | -9.13285 | 359 ft | 2 kts | 117° |
| 2026-05-06 18:05 | 38.78351 | -9.13263 | 360 ft | 5 kts | 155° |
| 2026-05-06 18:06 | 38.78307 | -9.13269 | 354 ft | 7 kts | 201° |
| 2026-05-06 18:06 | 38.78259 | -9.13297 | 354 ft | 7 kts | 202° |
| 2026-05-06 18:06 | 38.78245 | -9.13304 | 352 ft | 0 kts | 202° |
| 2026-05-06 18:06 | 38.78233 | -9.13311 | 354 ft | 3 kts | 202° |
| 2026-05-06 18:07 | 38.78227 | -9.13313 | 352 ft | 0 kts | 202° |
| 2026-05-06 18:07 | 38.78224 | -9.13315 | 352 ft | 1 kts | 202° |
| 2026-05-06 18:07 | 38.78214 | -9.13320 | 357 ft | 2 kts | 201° |
| 2026-05-06 18:08 | 38.78191 | -9.13332 | 353 ft | 5 kts | 201° |
| 2026-05-06 18:08 | 38.78147 | -9.13354 | 356 ft | 6 kts | 201° |
| 2026-05-06 18:08 | 38.78137 | -9.13359 | 354 ft | 0 kts | 202° |
| 2026-05-06 18:08 | 38.78131 | -9.13362 | 353 ft | 2 kts | 202° |
| 2026-05-06 18:09 | 38.78108 | -9.13375 | 358 ft | 5 kts | 204° |
| 2026-05-06 18:09 | 38.78067 | -9.13398 | 356 ft | 8 kts | 202° |
| 2026-05-06 18:09 | 38.78008 | -9.13429 | 359 ft | 11 kts | 202° |
| 2026-05-06 18:09 | 38.77932 | -9.13470 | 353 ft | 13 kts | 203° |
| 2026-05-06 18:10 | 38.77845 | -9.13517 | 359 ft | 15 kts | 202° |
| 2026-05-06 18:10 | 38.77741 | -9.13572 | 359 ft | 17 kts | 202° |
| 2026-05-06 18:10 | 38.77620 | -9.13637 | 358 ft | 20 kts | 203° |
| 2026-05-06 18:10 | 38.77489 | -9.13706 | 356 ft | 21 kts | 201° |
| 2026-05-06 18:11 | 38.77360 | -9.13774 | 357 ft | 19 kts | 204° |
| 2026-05-06 18:11 | 38.77239 | -9.13841 | 352 ft | 17 kts | 202° |
| 2026-05-06 18:11 | 38.77125 | -9.13896 | 355 ft | 18 kts | 190° |
| 2026-05-06 18:11 | 38.77002 | -9.13874 | 351 ft | 18 kts | 168° |
| 2026-05-06 18:12 | 38.76877 | -9.13839 | 351 ft | 18 kts | 167° |
| 2026-05-06 18:12 | 38.76750 | -9.13806 | 351 ft | 19 kts | 168° |
| 2026-05-06 18:12 | 38.76641 | -9.13775 | 351 ft | 14 kts | 159° |
| 2026-05-06 18:12 | 38.76608 | -9.13678 | 354 ft | 11 kts | 134° |
| 2026-05-06 18:13 | 38.76551 | -9.13686 | 356 ft | 9 kts | 230° |
| 2026-05-06 18:13 | 38.76496 | -9.13687 | 356 ft | 7 kts | 166° |
| 2026-05-06 18:13 | 38.76470 | -9.13679 | 351 ft | 2 kts | 167° |
| 2026-05-06 18:13 | 38.76468 | -9.13679 | 351 ft | 0 kts | 167° |